sensor_id;sensor_type;location;lat;lon;timestamp;pressure;altitude;pressure_sealevel;temperature;humidity
6423;BME280;3244;42.708;23.288;2023-04-09T00:00:38;95231.44;;;8.15;85.19
6423;BME280;3244;42.708;23.288;2023-04-09T00:03:04;95237.19;;;8.22;85.27
6423;BME280;3244;42.708;23.288;2023-04-09T00:05:31;95233.03;;;8.19;85.23
6423;BME280;3244;42.708;23.288;2023-04-09T00:07:59;95238.06;;;8.21;85.10
6423;BME280;3244;42.708;23.288;2023-04-09T00:10:26;95239.63;;;8.27;84.92
6423;BME280;3244;42.708;23.288;2023-04-09T00:12:53;95238.69;;;8.32;84.29
6423;BME280;3244;42.708;23.288;2023-04-09T00:15:19;95245.47;;;8.30;84.58
6423;BME280;3244;42.708;23.288;2023-04-09T00:17:46;95251.38;;;8.31;84.48
6423;BME280;3244;42.708;23.288;2023-04-09T00:20:13;95249.69;;;8.30;84.89
6423;BME280;3244;42.708;23.288;2023-04-09T00:22:39;95252.19;;;8.31;85.50
6423;BME280;3244;42.708;23.288;2023-04-09T00:25:08;95242.22;;;8.24;85.75
6423;BME280;3244;42.708;23.288;2023-04-09T00:27:35;95241.22;;;8.32;84.68
6423;BME280;3244;42.708;23.288;2023-04-09T00:30:01;95248.84;;;8.31;85.17
6423;BME280;3244;42.708;23.288;2023-04-09T00:32:28;95258.09;;;8.32;85.14
6423;BME280;3244;42.708;23.288;2023-04-09T00:34:55;95254.59;;;8.39;84.33
6423;BME280;3244;42.708;23.288;2023-04-09T00:37:22;95259.44;;;8.48;84.36
6423;BME280;3244;42.708;23.288;2023-04-09T00:39:49;95257.84;;;8.44;83.73
6423;BME280;3244;42.708;23.288;2023-04-09T00:42:17;95257.13;;;8.39;84.79
6423;BME280;3244;42.708;23.288;2023-04-09T00:44:43;95251.28;;;8.37;84.35
6423;BME280;3244;42.708;23.288;2023-04-09T00:47:10;95251.28;;;8.37;84.14
6423;BME280;3244;42.708;23.288;2023-04-09T00:49:37;95246.19;;;8.37;85.24
6423;BME280;3244;42.708;23.288;2023-04-09T00:52:04;95241.19;;;8.34;84.43
6423;BME280;3244;42.708;23.288;2023-04-09T00:54:31;95242.44;;;8.53;84.43
6423;BME280;3244;42.708;23.288;2023-04-09T00:56:58;95239.94;;;8.51;84.29
6423;BME280;3244;42.708;23.288;2023-04-09T00:59:26;95245.84;;;8.52;84.42
6423;BME280;3244;42.708;23.288;2023-04-09T01:01:54;95241.13;;;8.37;83.93
6423;BME280;3244;42.708;23.288;2023-04-09T01:04:22;95243.06;;;8.24;84.94
6423;BME280;3244;42.708;23.288;2023-04-09T01:06:50;95252.19;;;8.33;84.96
6423;BME280;3244;42.708;23.288;2023-04-09T01:09:23;95247.91;;;8.36;84.67
6423;BME280;3244;42.708;23.288;2023-04-09T01:12:00;95239.47;;;8.36;84.64
6423;BME280;3244;42.708;23.288;2023-04-09T01:14:34;95248.84;;;8.32;84.13
6423;BME280;3244;42.708;23.288;2023-04-09T01:17:04;95253.25;;;8.21;84.46
6423;BME280;3244;42.708;23.288;2023-04-09T01:19:38;95247.31;;;8.22;84.97
6423;BME280;3244;42.708;23.288;2023-04-09T01:22:13;95252.47;;;8.17;84.54
6423;BME280;3244;42.708;23.288;2023-04-09T01:24:59;95256.56;;;8.25;84.53
6423;BME280;3244;42.708;23.288;2023-04-09T01:27:36;95254.66;;;8.36;83.74
6423;BME280;3244;42.708;23.288;2023-04-09T01:30:06;95252.78;;;8.44;83.35
6423;BME280;3244;42.708;23.288;2023-04-09T01:32:36;95255.88;;;8.57;82.78
6423;BME280;3244;42.708;23.288;2023-04-09T01:35:05;95249.88;;;8.61;83.54
6423;BME280;3244;42.708;23.288;2023-04-09T01:37:33;95257.66;;;8.53;82.63
6423;BME280;3244;42.708;23.288;2023-04-09T01:40:00;95257.66;;;8.53;82.27
6423;BME280;3244;42.708;23.288;2023-04-09T01:42:29;95258.75;;;8.78;82.03
6423;BME280;3244;42.708;23.288;2023-04-09T01:44:56;95259.13;;;8.63;82.33
6423;BME280;3244;42.708;23.288;2023-04-09T01:47:26;95257.75;;;8.85;81.96
6423;BME280;3244;42.708;23.288;2023-04-09T01:49:53;95256.41;;;8.69;82.43
6423;BME280;3244;42.708;23.288;2023-04-09T01:52:20;95261.34;;;8.75;81.83
6423;BME280;3244;42.708;23.288;2023-04-09T01:54:47;95260.56;;;8.73;82.16
6423;BME280;3244;42.708;23.288;2023-04-09T01:57:13;95255.03;;;8.92;81.22
6423;BME280;3244;42.708;23.288;2023-04-09T01:59:40;95250.13;;;8.85;81.77
6423;BME280;3244;42.708;23.288;2023-04-09T02:02:09;95254.97;;;8.95;80.72
6423;BME280;3244;42.708;23.288;2023-04-09T02:04:40;95249.72;;;9.02;80.57
6423;BME280;3244;42.708;23.288;2023-04-09T02:07:12;95255.56;;;9.06;80.19
6423;BME280;3244;42.708;23.288;2023-04-09T02:09:40;95253.09;;;9.03;79.75
6423;BME280;3244;42.708;23.288;2023-04-09T02:12:11;95248.53;;;8.81;81.10
6423;BME280;3244;42.708;23.288;2023-04-09T02:14:40;95257.19;;;8.73;81.65
6423;BME280;3244;42.708;23.288;2023-04-09T02:17:07;95252.09;;;8.74;81.53
6423;BME280;3244;42.708;23.288;2023-04-09T02:19:39;95243.53;;;8.78;81.42
6423;BME280;3244;42.708;23.288;2023-04-09T02:22:06;95252.16;;;8.71;81.74
6423;BME280;3244;42.708;23.288;2023-04-09T02:24:32;95254.53;;;8.77;81.99
6423;BME280;3244;42.708;23.288;2023-04-09T02:26:59;95236.09;;;8.72;82.31
6423;BME280;3244;42.708;23.288;2023-04-09T02:29:26;95247.09;;;8.71;81.42
6423;BME280;3244;42.708;23.288;2023-04-09T02:31:53;95250.81;;;8.57;82.76
6423;BME280;3244;42.708;23.288;2023-04-09T02:34:19;95255.97;;;8.52;82.54
6423;BME280;3244;42.708;23.288;2023-04-09T02:36:48;95258.06;;;8.35;83.35
6423;BME280;3244;42.708;23.288;2023-04-09T02:39:14;95258.91;;;8.35;83.55
6423;BME280;3244;42.708;23.288;2023-04-09T02:41:42;95250.50;;;8.32;83.51
6423;BME280;3244;42.708;23.288;2023-04-09T02:44:09;95248.72;;;8.37;83.84
6423;BME280;3244;42.708;23.288;2023-04-09T02:46:37;95253.88;;;8.34;83.52
6423;BME280;3244;42.708;23.288;2023-04-09T02:49:04;95251.69;;;8.15;83.58
6423;BME280;3244;42.708;23.288;2023-04-09T02:51:33;95248.97;;;8.23;84.09
6423;BME280;3244;42.708;23.288;2023-04-09T02:54:01;95242.44;;;8.14;83.58
6423;BME280;3244;42.708;23.288;2023-04-09T02:56:28;95235.81;;;8.09;84.30
6423;BME280;3244;42.708;23.288;2023-04-09T02:58:55;95243.53;;;8.01;84.17
6423;BME280;3244;42.708;23.288;2023-04-09T03:01:21;95246.81;;;8.06;84.32
6423;BME280;3244;42.708;23.288;2023-04-09T03:03:48;95245.34;;;7.96;84.26
6423;BME280;3244;42.708;23.288;2023-04-09T03:06:15;95248.16;;;7.82;85.32
6423;BME280;3244;42.708;23.288;2023-04-09T03:08:42;95246.50;;;7.80;85.40
6423;BME280;3244;42.708;23.288;2023-04-09T03:11:11;95242.44;;;7.73;84.85
6423;BME280;3244;42.708;23.288;2023-04-09T03:13:37;95248.22;;;7.79;85.11
6423;BME280;3244;42.708;23.288;2023-04-09T03:16:05;95239.78;;;7.79;84.88
6423;BME280;3244;42.708;23.288;2023-04-09T03:18:31;95243.00;;;7.87;84.89
6423;BME280;3244;42.708;23.288;2023-04-09T03:20:58;95241.34;;;7.86;84.95
6423;BME280;3244;42.708;23.288;2023-04-09T03:23:25;95245.47;;;7.90;84.82
6423;BME280;3244;42.708;23.288;2023-04-09T03:25:59;95242.84;;;7.93;84.90
6423;BME280;3244;42.708;23.288;2023-04-09T03:28:27;95243.16;;;7.79;84.88
6423;BME280;3244;42.708;23.288;2023-04-09T03:30:54;95238.22;;;7.73;85.00
6423;BME280;3244;42.708;23.288;2023-04-09T03:33:21;95238.97;;;7.77;85.47
6423;BME280;3244;42.708;23.288;2023-04-09T03:35:48;95239.03;;;7.74;85.43
6423;BME280;3244;42.708;23.288;2023-04-09T03:38:14;95244.06;;;7.75;84.78
6423;BME280;3244;42.708;23.288;2023-04-09T03:40:41;95246.69;;;7.71;85.91
6423;BME280;3244;42.708;23.288;2023-04-09T03:43:08;95244.16;;;7.71;86.57
6423;BME280;3244;42.708;23.288;2023-04-09T03:45:36;95246.53;;;7.78;85.60
6423;BME280;3244;42.708;23.288;2023-04-09T03:48:03;95243.34;;;7.69;85.71
6423;BME280;3244;42.708;23.288;2023-04-09T03:50:29;95247.75;;;7.61;85.37
6423;BME280;3244;42.708;23.288;2023-04-09T03:52:56;95246.13;;;7.57;85.91
6423;BME280;3244;42.708;23.288;2023-04-09T03:55:23;95244.41;;;7.59;85.90
6423;BME280;3244;42.708;23.288;2023-04-09T03:57:49;95252.97;;;7.51;86.36
6423;BME280;3244;42.708;23.288;2023-04-09T04:00:16;95252.84;;;7.58;86.25
6423;BME280;3244;42.708;23.288;2023-04-09T04:02:44;95252.75;;;7.64;85.76
6423;BME280;3244;42.708;23.288;2023-04-09T04:05:11;95259.47;;;7.65;85.92
6423;BME280;3244;42.708;23.288;2023-04-09T04:07:38;95258.66;;;7.63;86.15
6423;BME280;3244;42.708;23.288;2023-04-09T04:10:08;95261.78;;;7.75;85.87
6423;BME280;3244;42.708;23.288;2023-04-09T04:12:35;95260.13;;;7.74;85.12
6423;BME280;3244;42.708;23.288;2023-04-09T04:15:02;95264.22;;;7.80;85.20
6423;BME280;3244;42.708;23.288;2023-04-09T04:17:28;95262.44;;;7.85;85.22
6423;BME280;3244;42.708;23.288;2023-04-09T04:19:57;95255.50;;;7.93;85.03
6423;BME280;3244;42.708;23.288;2023-04-09T04:22:23;95260.53;;;7.96;84.65
6423;BME280;3244;42.708;23.288;2023-04-09T04:24:50;95263.78;;;8.01;84.81
6423;BME280;3244;42.708;23.288;2023-04-09T04:27:17;95260.56;;;7.93;84.84
6423;BME280;3244;42.708;23.288;2023-04-09T04:29:43;95258.03;;;7.93;84.98
6423;BME280;3244;42.708;23.288;2023-04-09T04:32:10;95265.06;;;7.80;85.01
6423;BME280;3244;42.708;23.288;2023-04-09T04:34:37;95264.91;;;7.90;85.16
6423;BME280;3244;42.708;23.288;2023-04-09T04:37:05;95268.28;;;7.89;85.21
6423;BME280;3244;42.708;23.288;2023-04-09T04:39:31;95263.19;;;7.90;84.89
6423;BME280;3244;42.708;23.288;2023-04-09T04:41:58;95264.03;;;7.91;85.10
6423;BME280;3244;42.708;23.288;2023-04-09T04:44:25;95269.88;;;7.93;84.96
6423;BME280;3244;42.708;23.288;2023-04-09T04:46:52;95261.34;;;7.97;84.61
6423;BME280;3244;42.708;23.288;2023-04-09T04:49:19;95253.63;;;8.04;83.53
6423;BME280;3244;42.708;23.288;2023-04-09T04:51:45;95264.41;;;8.12;83.67
6423;BME280;3244;42.708;23.288;2023-04-09T04:54:13;95270.47;;;8.05;84.35
6423;BME280;3244;42.708;23.288;2023-04-09T04:56:40;95278.88;;;8.07;84.10
6423;BME280;3244;42.708;23.288;2023-04-09T04:59:07;95276.69;;;8.31;82.85
6423;BME280;3244;42.708;23.288;2023-04-09T05:01:33;95271.31;;;8.46;82.69
6423;BME280;3244;42.708;23.288;2023-04-09T05:04:00;95273.50;;;8.61;81.81
6423;BME280;3244;42.708;23.288;2023-04-09T05:06:27;95265.75;;;8.67;81.20
6423;BME280;3244;42.708;23.288;2023-04-09T05:08:54;95270.47;;;8.82;80.82
6423;BME280;3244;42.708;23.288;2023-04-09T05:11:23;95279.63;;;8.90;80.63
6423;BME280;3244;42.708;23.288;2023-04-09T05:13:50;95276.25;;;9.23;79.02
6423;BME280;3244;42.708;23.288;2023-04-09T05:16:17;95272.91;;;9.21;78.62
6423;BME280;3244;42.708;23.288;2023-04-09T05:18:44;95273.09;;;9.15;79.12
6423;BME280;3244;42.708;23.288;2023-04-09T05:21:11;95268.69;;;9.21;78.84
6423;BME280;3244;42.708;23.288;2023-04-09T05:23:37;95276.25;;;9.55;77.42
6423;BME280;3244;42.708;23.288;2023-04-09T05:26:04;95270.50;;;9.81;76.29
6423;BME280;3244;42.708;23.288;2023-04-09T05:28:32;95261.03;;;10.16;75.37
6423;BME280;3244;42.708;23.288;2023-04-09T05:30:59;95262.06;;;10.10;75.27
6423;BME280;3244;42.708;23.288;2023-04-09T05:33:26;95267.75;;;10.18;74.98
6423;BME280;3244;42.708;23.288;2023-04-09T05:35:53;95261.44;;;10.33;74.62
6423;BME280;3244;42.708;23.288;2023-04-09T05:38:20;95272.44;;;10.34;73.69
6423;BME280;3244;42.708;23.288;2023-04-09T05:40:47;95278.91;;;10.14;74.07
6423;BME280;3244;42.708;23.288;2023-04-09T05:43:13;95267.22;;;10.07;74.34
6423;BME280;3244;42.708;23.288;2023-04-09T05:45:41;95271.16;;;10.19;74.11
6423;BME280;3244;42.708;23.288;2023-04-09T05:48:08;95273.47;;;10.56;72.67
6423;BME280;3244;42.708;23.288;2023-04-09T05:50:35;95277.38;;;10.66;71.68
6423;BME280;3244;42.708;23.288;2023-04-09T05:53:01;95273.00;;;10.42;72.13
6423;BME280;3244;42.708;23.288;2023-04-09T05:55:30;95277.91;;;10.20;72.39
6423;BME280;3244;42.708;23.288;2023-04-09T05:57:56;95280.44;;;10.18;72.62
6423;BME280;3244;42.708;23.288;2023-04-09T06:00:23;95271.34;;;10.41;72.52
6423;BME280;3244;42.708;23.288;2023-04-09T06:02:51;95275.44;;;10.74;70.96
6423;BME280;3244;42.708;23.288;2023-04-09T06:05:18;95276.00;;;10.56;71.13
6423;BME280;3244;42.708;23.288;2023-04-09T06:07:45;95277.13;;;10.74;70.79
6423;BME280;3244;42.708;23.288;2023-04-09T06:10:11;95278.19;;;11.21;69.62
6423;BME280;3244;42.708;23.288;2023-04-09T06:12:38;95280.13;;;11.89;67.02
6423;BME280;3244;42.708;23.288;2023-04-09T06:15:06;95264.81;;;13.03;64.17
6423;BME280;3244;42.708;23.288;2023-04-09T06:17:32;95263.06;;;14.44;58.97
6423;BME280;3244;42.708;23.288;2023-04-09T06:20:01;95262.75;;;15.75;54.76
6423;BME280;3244;42.708;23.288;2023-04-09T06:22:28;95265.69;;;16.33;52.21
6423;BME280;3244;42.708;23.288;2023-04-09T06:24:54;95267.59;;;16.30;52.91
6423;BME280;3244;42.708;23.288;2023-04-09T06:27:21;95271.94;;;16.12;52.98
6423;BME280;3244;42.708;23.288;2023-04-09T06:29:48;95277.41;;;15.37;54.27
6423;BME280;3244;42.708;23.288;2023-04-09T06:32:15;95267.16;;;15.03;54.44
6423;BME280;3244;42.708;23.288;2023-04-09T06:34:42;95264.31;;;14.35;56.72
6423;BME280;3244;42.708;23.288;2023-04-09T06:37:10;95273.41;;;14.03;57.76
6423;BME280;3244;42.708;23.288;2023-04-09T06:39:37;95271.25;;;14.52;56.76
6423;BME280;3244;42.708;23.288;2023-04-09T06:42:04;95275.03;;;14.98;54.26
6423;BME280;3244;42.708;23.288;2023-04-09T06:44:32;95278.50;;;14.42;56.41
6423;BME280;3244;42.708;23.288;2023-04-09T06:46:59;95279.78;;;15.76;53.07
6423;BME280;3244;42.708;23.288;2023-04-09T06:49:26;95279.38;;;16.01;51.71
6423;BME280;3244;42.708;23.288;2023-04-09T06:51:53;95285.69;;;15.42;52.79
6423;BME280;3244;42.708;23.288;2023-04-09T06:54:21;95285.06;;;14.48;55.99
6423;BME280;3244;42.708;23.288;2023-04-09T06:56:48;95276.16;;;15.80;52.68
6423;BME280;3244;42.708;23.288;2023-04-09T06:59:16;95288.19;;;16.28;50.51
6423;BME280;3244;42.708;23.288;2023-04-09T07:01:42;95277.81;;;15.29;51.76
6423;BME280;3244;42.708;23.288;2023-04-09T07:04:10;95285.41;;;14.01;55.35
6423;BME280;3244;42.708;23.288;2023-04-09T07:06:37;95300.91;;;13.14;58.76
6423;BME280;3244;42.708;23.288;2023-04-09T07:09:04;95292.44;;;12.24;62.17
6423;BME280;3244;42.708;23.288;2023-04-09T07:11:32;95293.13;;;12.06;63.02
6423;BME280;3244;42.708;23.288;2023-04-09T07:13:59;95302.41;;;11.84;64.34
6423;BME280;3244;42.708;23.288;2023-04-09T07:16:26;95288.97;;;12.04;64.23
6423;BME280;3244;42.708;23.288;2023-04-09T07:18:52;95281.91;;;13.01;61.76
6423;BME280;3244;42.708;23.288;2023-04-09T07:21:19;95289.94;;;13.12;60.21
6423;BME280;3244;42.708;23.288;2023-04-09T07:23:46;95288.78;;;12.55;61.71
6423;BME280;3244;42.708;23.288;2023-04-09T07:26:13;95302.75;;;12.21;62.45
6423;BME280;3244;42.708;23.288;2023-04-09T07:28:41;95288.84;;;12.30;62.33
6423;BME280;3244;42.708;23.288;2023-04-09T07:31:07;95291.72;;;12.66;61.39
6423;BME280;3244;42.708;23.288;2023-04-09T07:33:35;95292.06;;;12.80;60.05
6423;BME280;3244;42.708;23.288;2023-04-09T07:36:02;95291.41;;;12.30;60.47
6423;BME280;3244;42.708;23.288;2023-04-09T07:38:28;95297.34;;;12.07;61.70
6423;BME280;3244;42.708;23.288;2023-04-09T07:40:55;95295.00;;;12.01;62.09
6423;BME280;3244;42.708;23.288;2023-04-09T07:43:22;95299.31;;;11.99;60.67
6423;BME280;3244;42.708;23.288;2023-04-09T07:45:51;95303.59;;;11.72;61.32
6423;BME280;3244;42.708;23.288;2023-04-09T07:48:17;95297.81;;;11.42;61.19
6423;BME280;3244;42.708;23.288;2023-04-09T07:50:44;95307.53;;;11.31;61.85
6423;BME280;3244;42.708;23.288;2023-04-09T07:53:11;95303.91;;;11.38;62.06
6423;BME280;3244;42.708;23.288;2023-04-09T07:55:38;95294.47;;;11.67;60.50
6423;BME280;3244;42.708;23.288;2023-04-09T07:58:05;95302.66;;;11.75;60.50
6423;BME280;3244;42.708;23.288;2023-04-09T08:00:32;95300.59;;;12.11;59.24
6423;BME280;3244;42.708;23.288;2023-04-09T08:03:00;95294.50;;;12.83;57.49
6423;BME280;3244;42.708;23.288;2023-04-09T08:05:28;95296.84;;;15.41;50.24
6423;BME280;3244;42.708;23.288;2023-04-09T08:07:55;95297.25;;;18.04;43.95
6423;BME280;3244;42.708;23.288;2023-04-09T08:10:21;95302.03;;;19.08;40.94
6423;BME280;3244;42.708;23.288;2023-04-09T08:12:48;95301.06;;;17.23;43.78
6423;BME280;3244;42.708;23.288;2023-04-09T08:15:15;95312.63;;;17.46;43.85
6423;BME280;3244;42.708;23.288;2023-04-09T08:17:42;95306.16;;;16.11;46.40
6423;BME280;3244;42.708;23.288;2023-04-09T08:20:11;95313.94;;;14.69;50.28
6423;BME280;3244;42.708;23.288;2023-04-09T08:22:38;95310.41;;;13.54;53.83
6423;BME280;3244;42.708;23.288;2023-04-09T08:25:07;95314.88;;;12.62;56.46
6423;BME280;3244;42.708;23.288;2023-04-09T08:27:33;95332.78;;;12.37;57.89
6423;BME280;3244;42.708;23.288;2023-04-09T08:30:01;95335.63;;;12.74;57.33
6423;BME280;3244;42.708;23.288;2023-04-09T08:32:28;95317.81;;;13.18;56.16
6423;BME280;3244;42.708;23.288;2023-04-09T08:34:55;95323.44;;;13.26;56.08
6423;BME280;3244;42.708;23.288;2023-04-09T08:37:23;95312.34;;;13.27;55.53
6423;BME280;3244;42.708;23.288;2023-04-09T08:39:51;95343.78;;;13.06;55.83
6423;BME280;3244;42.708;23.288;2023-04-09T08:42:18;95306.78;;;13.38;55.19
6423;BME280;3244;42.708;23.288;2023-04-09T08:44:46;95316.53;;;14.29;52.80
6423;BME280;3244;42.708;23.288;2023-04-09T08:47:13;95298.94;;;15.16;50.32
6423;BME280;3244;42.708;23.288;2023-04-09T08:49:40;95302.69;;;15.62;49.03
6423;BME280;3244;42.708;23.288;2023-04-09T08:52:07;95293.75;;;16.04;47.64
6423;BME280;3244;42.708;23.288;2023-04-09T08:54:35;95303.38;;;16.49;46.53
6423;BME280;3244;42.708;23.288;2023-04-09T08:57:04;95296.34;;;15.52;48.76
6423;BME280;3244;42.708;23.288;2023-04-09T08:59:31;95299.75;;;15.16;49.52
6423;BME280;3244;42.708;23.288;2023-04-09T09:02:07;95305.63;;;14.26;52.37
6423;BME280;3244;42.708;23.288;2023-04-09T09:04:45;95294.75;;;14.40;52.18
6423;BME280;3244;42.708;23.288;2023-04-09T09:07:12;95300.53;;;14.63;52.14
6423;BME280;3244;42.708;23.288;2023-04-09T09:09:54;95296.66;;;13.97;53.90
6423;BME280;3244;42.708;23.288;2023-04-09T09:12:32;95277.59;;;14.43;52.58
6423;BME280;3244;42.708;23.288;2023-04-09T09:14:58;95288.94;;;13.38;54.76
6423;BME280;3244;42.708;23.288;2023-04-09T09:17:25;95297.63;;;12.90;56.95
6423;BME280;3244;42.708;23.288;2023-04-09T09:19:52;95291.09;;;12.83;56.93
6423;BME280;3244;42.708;23.288;2023-04-09T09:22:19;95287.78;;;13.24;56.70
6423;BME280;3244;42.708;23.288;2023-04-09T09:24:46;95287.72;;;13.46;55.99
6423;BME280;3244;42.708;23.288;2023-04-09T09:27:29;95296.69;;;13.77;54.69
6423;BME280;3244;42.708;23.288;2023-04-09T09:29:56;95281.78;;;13.86;54.66
6423;BME280;3244;42.708;23.288;2023-04-09T09:32:23;95290.16;;;14.29;54.02
6423;BME280;3244;42.708;23.288;2023-04-09T09:34:57;95280.75;;;14.29;53.77
6423;BME280;3244;42.708;23.288;2023-04-09T09:37:25;95275.44;;;14.34;53.89
6423;BME280;3244;42.708;23.288;2023-04-09T09:39:52;95265.09;;;14.36;53.50
6423;BME280;3244;42.708;23.288;2023-04-09T09:42:21;95291.09;;;14.08;54.27
6423;BME280;3244;42.708;23.288;2023-04-09T09:44:48;95293.09;;;12.53;57.96
6423;BME280;3244;42.708;23.288;2023-04-09T09:47:16;95278.25;;;11.94;60.78
6423;BME280;3244;42.708;23.288;2023-04-09T09:49:43;95267.28;;;12.39;59.58
6423;BME280;3244;42.708;23.288;2023-04-09T09:52:10;95284.91;;;12.67;58.37
6423;BME280;3244;42.708;23.288;2023-04-09T09:54:40;95269.19;;;12.10;60.05
6423;BME280;3244;42.708;23.288;2023-04-09T09:57:09;95272.88;;;11.78;61.00
6423;BME280;3244;42.708;23.288;2023-04-09T09:59:40;95264.63;;;11.95;61.35
6423;BME280;3244;42.708;23.288;2023-04-09T10:02:14;95261.50;;;12.12;60.04
6423;BME280;3244;42.708;23.288;2023-04-09T10:04:43;95244.34;;;12.39;58.80
6423;BME280;3244;42.708;23.288;2023-04-09T10:07:12;95255.13;;;12.45;57.78
6423;BME280;3244;42.708;23.288;2023-04-09T10:09:42;95250.22;;;12.41;57.49
6423;BME280;3244;42.708;23.288;2023-04-09T10:12:11;95254.81;;;12.54;56.40
6423;BME280;3244;42.708;23.288;2023-04-09T10:14:40;95257.69;;;12.67;56.13
6423;BME280;3244;42.708;23.288;2023-04-09T10:17:08;95266.66;;;12.34;56.84
6423;BME280;3244;42.708;23.288;2023-04-09T10:19:37;95263.28;;;12.10;58.36
6423;BME280;3244;42.708;23.288;2023-04-09T10:22:09;95261.75;;;12.27;57.17
6423;BME280;3244;42.708;23.288;2023-04-09T10:24:37;95253.03;;;12.11;56.54
6423;BME280;3244;42.708;23.288;2023-04-09T10:27:10;95253.97;;;12.54;55.99
6423;BME280;3244;42.708;23.288;2023-04-09T10:29:42;95253.75;;;12.82;55.37
6423;BME280;3244;42.708;23.288;2023-04-09T10:32:10;95241.47;;;13.12;54.74
6423;BME280;3244;42.708;23.288;2023-04-09T10:34:38;95238.03;;;13.35;53.72
6423;BME280;3244;42.708;23.288;2023-04-09T10:37:07;95263.97;;;13.24;53.56
6423;BME280;3244;42.708;23.288;2023-04-09T10:39:38;95229.59;;;13.33;53.77
6423;BME280;3244;42.708;23.288;2023-04-09T10:42:07;95233.09;;;13.30;53.40
6423;BME280;3244;42.708;23.288;2023-04-09T10:44:38;95233.47;;;13.21;53.60
6423;BME280;3244;42.708;23.288;2023-04-09T10:47:09;95224.53;;;13.51;53.31
6423;BME280;3244;42.708;23.288;2023-04-09T10:49:36;95220.91;;;13.96;52.26
6423;BME280;3244;42.708;23.288;2023-04-09T10:52:05;95226.50;;;13.85;51.80
6423;BME280;3244;42.708;23.288;2023-04-09T10:54:39;95222.34;;;13.62;52.37
6423;BME280;3244;42.708;23.288;2023-04-09T10:57:18;95205.03;;;13.69;52.41
6423;BME280;3244;42.708;23.288;2023-04-09T10:59:47;95203.34;;;13.88;52.16
6423;BME280;3244;42.708;23.288;2023-04-09T11:02:47;95212.25;;;14.17;51.81
6423;BME280;3244;42.708;23.288;2023-04-09T11:05:41;95195.72;;;14.62;50.18
6423;BME280;3244;42.708;23.288;2023-04-09T11:08:10;95196.63;;;14.61;50.16
6423;BME280;3244;42.708;23.288;2023-04-09T11:10:37;95188.94;;;14.80;49.83
6423;BME280;3244;42.708;23.288;2023-04-09T11:13:04;95191.19;;;14.86;49.54
6423;BME280;3244;42.708;23.288;2023-04-09T11:15:34;95186.06;;;14.86;49.88
6423;BME280;3244;42.708;23.288;2023-04-09T11:18:02;95197.09;;;14.69;48.89
6423;BME280;3244;42.708;23.288;2023-04-09T11:20:32;95191.72;;;14.92;49.00
6423;BME280;3244;42.708;23.288;2023-04-09T11:22:59;95193.56;;;14.72;48.98
6423;BME280;3244;42.708;23.288;2023-04-09T11:25:27;95188.81;;;14.64;49.56
6423;BME280;3244;42.708;23.288;2023-04-09T11:27:55;95200.13;;;14.77;48.85
6423;BME280;3244;42.708;23.288;2023-04-09T11:30:22;95193.66;;;14.87;48.53
6423;BME280;3244;42.708;23.288;2023-04-09T11:32:49;95209.41;;;14.80;47.42
6423;BME280;3244;42.708;23.288;2023-04-09T11:35:19;95195.78;;;14.06;48.87
6423;BME280;3244;42.708;23.288;2023-04-09T11:37:46;95200.53;;;13.94;50.00
6423;BME280;3244;42.708;23.288;2023-04-09T11:40:18;95184.81;;;13.65;49.84
6423;BME280;3244;42.708;23.288;2023-04-09T11:42:47;95185.56;;;13.67;51.19
6423;BME280;3244;42.708;23.288;2023-04-09T11:45:14;95188.03;;;14.07;51.04
6423;BME280;3244;42.708;23.288;2023-04-09T11:47:42;95188.38;;;14.18;50.23
6423;BME280;3244;42.708;23.288;2023-04-09T11:50:11;95183.41;;;14.34;49.51
6423;BME280;3244;42.708;23.288;2023-04-09T11:52:40;95180.16;;;14.49;49.97
6423;BME280;3244;42.708;23.288;2023-04-09T11:55:07;95174.25;;;14.83;49.51
6423;BME280;3244;42.708;23.288;2023-04-09T11:57:39;95175.03;;;15.03;48.56
6423;BME280;3244;42.708;23.288;2023-04-09T12:00:09;95166.88;;;15.29;47.58
6423;BME280;3244;42.708;23.288;2023-04-09T12:02:40;95170.25;;;15.12;47.20
6423;BME280;3244;42.708;23.288;2023-04-09T12:05:11;95164.09;;;14.99;47.96
6423;BME280;3244;42.708;23.288;2023-04-09T12:07:39;95163.88;;;15.21;46.50
6423;BME280;3244;42.708;23.288;2023-04-09T12:10:08;95154.03;;;15.46;46.60
6423;BME280;3244;42.708;23.288;2023-04-09T12:12:39;95163.25;;;15.33;46.14
6423;BME280;3244;42.708;23.288;2023-04-09T12:15:10;95154.53;;;15.20;46.85
6423;BME280;3244;42.708;23.288;2023-04-09T12:17:37;95159.63;;;15.37;47.44
6423;BME280;3244;42.708;23.288;2023-04-09T12:20:05;95166.06;;;15.61;48.19
6423;BME280;3244;42.708;23.288;2023-04-09T12:22:34;95151.84;;;15.89;49.04
6423;BME280;3244;42.708;23.288;2023-04-09T12:25:07;95143.84;;;16.26;48.38
6423;BME280;3244;42.708;23.288;2023-04-09T12:27:34;95146.66;;;16.83;47.89
6423;BME280;3244;42.708;23.288;2023-04-09T12:30:01;95141.81;;;17.37;47.17
6423;BME280;3244;42.708;23.288;2023-04-09T12:32:27;95142.59;;;17.53;46.00
6423;BME280;3244;42.708;23.288;2023-04-09T12:34:54;95142.47;;;17.41;45.65
6423;BME280;3244;42.708;23.288;2023-04-09T12:37:21;95142.66;;;16.93;46.91
6423;BME280;3244;42.708;23.288;2023-04-09T12:39:48;95135.03;;;16.78;47.76
6423;BME280;3244;42.708;23.288;2023-04-09T12:42:16;95143.97;;;17.00;47.74
6423;BME280;3244;42.708;23.288;2023-04-09T12:44:43;95138.94;;;17.13;45.26
6423;BME280;3244;42.708;23.288;2023-04-09T12:47:09;95135.25;;;17.47;43.58
6423;BME280;3244;42.708;23.288;2023-04-09T12:49:36;95130.81;;;17.21;41.58
6423;BME280;3244;42.708;23.288;2023-04-09T12:52:03;95137.94;;;16.72;42.67
6423;BME280;3244;42.708;23.288;2023-04-09T12:54:30;95137.59;;;16.46;43.00
6423;BME280;3244;42.708;23.288;2023-04-09T12:56:56;95129.25;;;16.43;43.70
6423;BME280;3244;42.708;23.288;2023-04-09T12:59:24;95135.47;;;16.23;43.71
6423;BME280;3244;42.708;23.288;2023-04-09T13:01:51;95126.53;;;16.14;44.36
6423;BME280;3244;42.708;23.288;2023-04-09T13:04:18;95126.78;;;15.94;44.07
6423;BME280;3244;42.708;23.288;2023-04-09T13:06:45;95128.66;;;15.59;44.77
6423;BME280;3244;42.708;23.288;2023-04-09T13:09:12;95126.22;;;14.88;46.72
6423;BME280;3244;42.708;23.288;2023-04-09T13:11:39;95128.22;;;14.83;47.02
6423;BME280;3244;42.708;23.288;2023-04-09T13:14:06;95132.53;;;14.64;47.06
6423;BME280;3244;42.708;23.288;2023-04-09T13:16:39;95127.66;;;14.23;47.97
6423;BME280;3244;42.708;23.288;2023-04-09T13:19:07;95135.41;;;14.03;48.88